createdAt,value
2023-04-11T00:01:10.154Z,3.71
2023-04-11T00:03:39.105Z,3.68
2023-04-11T00:06:09.999Z,3.66
2023-04-11T00:08:38.134Z,3.68
2023-04-11T00:11:06.463Z,3.62
2023-04-11T00:13:35.181Z,3.59
2023-04-11T00:16:03.673Z,3.62
2023-04-11T00:18:32.106Z,3.63
2023-04-11T00:21:00.281Z,3.58
2023-04-11T00:23:29.736Z,3.57
2023-04-11T00:25:58.597Z,3.55
2023-04-11T00:28:26.592Z,3.55
2023-04-11T00:30:54.580Z,3.51
2023-04-11T00:33:22.689Z,3.52
2023-04-11T00:35:51.312Z,3.46
2023-04-11T00:38:19.863Z,3.47
2023-04-11T00:40:49.800Z,3.44
2023-04-11T00:43:17.819Z,3.43
2023-04-11T00:45:46.582Z,3.41
2023-04-11T00:48:14.990Z,3.41
2023-04-11T00:50:44.349Z,3.36
2023-04-11T00:53:13.516Z,3.39
2023-04-11T00:55:41.794Z,3.39
2023-04-11T00:58:11.698Z,3.38
2023-04-11T01:00:39.880Z,3.32
2023-04-11T01:03:08.611Z,3.36
2023-04-11T01:05:37.256Z,3.29
2023-04-11T01:08:05.837Z,3.32
2023-04-11T01:10:34.242Z,3.28
2023-04-11T01:13:02.678Z,3.31
2023-04-11T01:15:32.569Z,3.27
2023-04-11T01:18:02.179Z,3.29
2023-04-11T01:20:31.939Z,3.24
2023-04-11T01:23:00.365Z,3.21
2023-04-11T01:25:30.112Z,3.23
2023-04-11T01:27:58.633Z,3.20
2023-04-11T01:30:27.031Z,3.19
2023-04-11T01:32:55.296Z,3.14
2023-04-11T01:35:23.608Z,3.14
2023-04-11T01:37:51.962Z,3.14
2023-04-11T01:40:21.539Z,3.14
2023-04-11T01:42:51.697Z,3.14
2023-04-11T01:45:22.477Z,3.12
2023-04-11T01:47:51.938Z,3.09
2023-04-11T01:50:20.216Z,3.07
2023-04-11T01:52:49.796Z,3.08
2023-04-11T01:55:18.238Z,3.03
2023-04-11T01:57:46.514Z,2.99
2023-04-11T02:00:17.139Z,2.98
2023-04-11T02:02:47.103Z,2.95
2023-04-11T02:05:15.600Z,2.92
2023-04-11T02:07:45.241Z,2.91
2023-04-11T02:10:18.771Z,2.87
2023-04-11T02:12:46.959Z,2.85
2023-04-11T02:15:16.918Z,2.82
2023-04-11T02:17:45.714Z,2.87
2023-04-11T02:20:14.584Z,2.86
2023-04-11T02:22:42.785Z,2.85
2023-04-11T02:25:11.147Z,2.81
2023-04-11T02:27:39.409Z,2.88
2023-04-11T02:30:08.169Z,2.86
2023-04-11T02:32:38.413Z,2.85
2023-04-11T02:35:07.820Z,2.87
2023-04-11T02:37:36.630Z,2.87
2023-04-11T02:40:05.880Z,2.86
2023-04-11T02:42:34.118Z,2.85
2023-04-11T02:45:02.482Z,2.87
2023-04-11T02:47:30.668Z,2.84
2023-04-11T02:50:05.829Z,2.85
2023-04-11T02:52:42.364Z,2.82
2023-04-11T02:55:12.232Z,2.82
2023-04-11T02:57:40.453Z,2.82
2023-04-11T03:00:13.111Z,2.82
2023-04-11T03:02:49.209Z,2.86
2023-04-11T03:05:23.207Z,2.87
2023-04-11T03:07:54.204Z,2.86
2023-04-11T03:10:22.940Z,2.86
2023-04-11T03:12:51.325Z,2.82
2023-04-11T03:15:19.501Z,2.81
2023-04-11T03:17:48.145Z,2.77
2023-04-11T03:20:19.853Z,2.71
2023-04-11T03:22:52.921Z,2.64
2023-04-11T03:25:21.747Z,2.59
2023-04-11T03:27:51.798Z,2.51
2023-04-11T03:30:20.067Z,2.47
2023-04-11T03:32:49.450Z,2.45
2023-04-11T03:35:20.514Z,2.49
2023-04-11T03:37:52.385Z,2.48
2023-04-11T03:40:20.498Z,2.43
2023-04-11T03:42:54.989Z,2.42
2023-04-11T03:45:27.705Z,2.42
2023-04-11T03:47:58.198Z,2.41
2023-04-11T03:50:32.706Z,2.42
2023-04-11T03:53:05.040Z,2.43
2023-04-11T03:55:33.262Z,2.42
2023-04-11T03:58:03.647Z,2.38
2023-04-11T04:00:33.211Z,2.37
2023-04-11T04:03:08.412Z,2.36
2023-04-11T04:05:38.477Z,2.34
2023-04-11T04:08:08.557Z,2.34
2023-04-11T04:10:54.630Z,2.36
2023-04-11T04:13:22.743Z,2.31
2023-04-11T04:16:06.358Z,2.30
2023-04-11T04:18:34.756Z,2.32
2023-04-11T04:21:03.267Z,2.29
2023-04-11T04:23:34.148Z,2.30
2023-04-11T04:26:25.112Z,2.32
2023-04-11T04:29:12.786Z,2.26
2023-04-11T04:31:57.258Z,2.24
2023-04-11T04:34:38.187Z,2.23
2023-04-11T04:37:06.562Z,2.27
2023-04-11T04:39:43.440Z,2.27
2023-04-11T04:42:16.480Z,2.23
2023-04-11T04:44:45.108Z,2.19
2023-04-11T04:47:18.535Z,2.13
2023-04-11T04:49:47.057Z,2.13
2023-04-11T04:52:16.966Z,2.08
2023-04-11T04:54:47.144Z,2.03
2023-04-11T04:57:15.528Z,2.04
2023-04-11T04:59:45.764Z,2.06
2023-04-11T05:02:17.336Z,2.04
2023-04-11T05:04:46.880Z,2.05
2023-04-11T05:07:16.159Z,2.05
2023-04-11T05:09:47.971Z,2.07
2023-04-11T05:12:27.037Z,2.08
2023-04-11T05:14:59.642Z,2.10
2023-04-11T05:17:31.264Z,2.15
2023-04-11T05:19:59.710Z,2.20
2023-04-11T05:22:29.021Z,2.20
2023-04-11T05:24:59.614Z,2.24
2023-04-11T05:27:28.353Z,2.27
2023-04-11T05:29:56.427Z,2.31
2023-04-11T05:32:25.426Z,2.35
2023-04-11T05:34:57.299Z,2.37
2023-04-11T05:37:44.981Z,2.42
2023-04-11T05:40:16.295Z,2.44
2023-04-11T05:42:44.524Z,2.49
2023-04-11T05:45:12.898Z,2.53
2023-04-11T05:47:41.019Z,2.58
2023-04-11T05:50:09.554Z,2.59
2023-04-11T05:52:37.670Z,2.64
2023-04-11T05:55:06.210Z,2.68
2023-04-11T05:57:35.858Z,2.73
2023-04-11T06:00:13.367Z,2.80
2023-04-11T06:02:46.548Z,2.84
2023-04-11T06:05:16.636Z,2.91
2023-04-11T06:07:46.510Z,2.98
2023-04-11T06:10:14.693Z,3.06
2023-04-11T06:12:44.146Z,3.13
2023-04-11T06:15:14.037Z,3.20
2023-04-11T06:17:42.343Z,3.26
2023-04-11T06:20:11.449Z,3.33
2023-04-11T06:22:40.365Z,3.35
2023-04-11T06:25:09.005Z,3.42
2023-04-11T06:27:37.285Z,3.49
2023-04-11T06:30:08.006Z,3.54
2023-04-11T06:32:36.455Z,3.59
2023-04-11T06:35:04.831Z,3.68
2023-04-11T06:37:33.003Z,3.75
2023-04-11T06:40:01.407Z,3.81
2023-04-11T06:42:29.697Z,3.89
2023-04-11T06:44:59.094Z,3.95
2023-04-11T06:47:28.753Z,4.03
2023-04-11T06:49:57.022Z,4.09
2023-04-11T06:52:27.002Z,4.17
2023-04-11T06:54:56.238Z,4.27
2023-04-11T06:57:24.447Z,4.32
2023-04-11T06:59:52.541Z,4.44
2023-04-11T07:02:20.861Z,4.51
2023-04-11T07:04:50.790Z,4.62
2023-04-11T07:07:18.889Z,4.71
2023-04-11T07:09:47.728Z,4.80
2023-04-11T07:12:16.056Z,4.89
2023-04-11T07:14:44.434Z,5.05
2023-04-11T07:17:12.677Z,5.12
2023-04-11T07:19:40.732Z,5.26
2023-04-11T07:22:11.380Z,5.43
2023-04-11T07:24:39.984Z,5.59
2023-04-11T07:27:08.502Z,5.75
2023-04-11T07:29:36.540Z,5.86
2023-04-11T07:32:04.979Z,5.99
2023-04-11T07:34:33.458Z,6.05
2023-04-11T07:37:01.841Z,6.02
2023-04-11T07:39:31.768Z,6.01
2023-04-11T07:41:59.973Z,5.99
2023-04-11T07:44:28.349Z,5.97
2023-04-11T07:46:56.475Z,6.01
2023-04-11T07:49:24.641Z,6.03
2023-04-11T07:51:52.820Z,6.07
2023-04-11T07:54:20.937Z,6.01
2023-04-11T07:56:50.435Z,5.96
2023-04-11T07:59:18.559Z,6.05
2023-04-11T08:01:47.239Z,6.03
2023-04-11T08:04:15.587Z,6.11
2023-04-11T08:06:44.293Z,6.18
2023-04-11T08:09:12.536Z,6.20
2023-04-11T08:11:41.213Z,6.19
2023-04-11T08:14:10.802Z,6.15
2023-04-11T08:16:38.976Z,6.18
2023-04-11T08:19:07.120Z,6.19
2023-04-11T08:21:35.237Z,6.20
2023-04-11T08:24:03.383Z,6.23
2023-04-11T08:26:32.124Z,6.30
2023-04-11T08:29:00.151Z,6.30
2023-04-11T08:31:30.086Z,6.31
2023-04-11T08:34:00.750Z,6.41
2023-04-11T08:36:29.520Z,6.42
2023-04-11T08:39:00.374Z,6.45
2023-04-11T08:41:30.877Z,6.50
2023-04-11T08:43:59.285Z,6.54
2023-04-11T08:46:28.030Z,6.57
2023-04-11T08:48:57.629Z,6.60
2023-04-11T08:51:26.903Z,6.64
2023-04-11T08:53:58.188Z,6.61
2023-04-11T08:56:26.773Z,6.79
2023-04-11T08:58:55.252Z,6.95
2023-04-11T09:01:32.134Z,7.21
2023-04-11T09:04:05.283Z,7.38
2023-04-11T09:06:35.088Z,7.47
2023-04-11T09:09:05.307Z,7.48
2023-04-11T09:11:51.818Z,7.55
2023-04-11T09:14:20.419Z,7.59
2023-04-11T09:16:54.884Z,7.65
2023-04-11T09:19:27.898Z,7.57
2023-04-11T09:21:56.868Z,7.74
2023-04-11T09:24:26.408Z,7.83
2023-04-11T09:27:07.201Z,7.92
2023-04-11T09:29:39.334Z,8.04
2023-04-11T09:32:07.620Z,8.11
2023-04-11T09:34:42.596Z,8.18
2023-04-11T09:37:10.888Z,8.21
2023-04-11T09:39:39.167Z,8.31
2023-04-11T09:42:22.108Z,8.31
2023-04-11T09:44:50.362Z,8.59
2023-04-11T09:47:18.703Z,8.68
2023-04-11T09:49:48.645Z,8.80
2023-04-11T09:52:17.225Z,8.71
2023-04-11T09:54:45.978Z,8.88
2023-04-11T09:57:14.684Z,8.83
2023-04-11T09:59:43.637Z,8.92
2023-04-11T10:02:11.927Z,8.81
2023-04-11T10:04:40.959Z,8.80
2023-04-11T10:07:14.621Z,8.85
2023-04-11T10:09:43.785Z,8.87
2023-04-11T10:12:11.978Z,8.75
2023-04-11T10:14:43.811Z,8.77
2023-04-11T10:17:12.966Z,8.67
2023-04-11T10:19:41.073Z,8.61
2023-04-11T10:22:11.305Z,8.54
2023-04-11T10:24:39.753Z,8.52
2023-04-11T10:27:07.893Z,8.48
2023-04-11T10:29:53.098Z,8.50
2023-04-11T10:32:22.850Z,8.48
2023-04-11T10:35:10.083Z,8.47
2023-04-11T10:37:39.589Z,8.61
2023-04-11T10:40:11.043Z,8.61
2023-04-11T10:42:40.326Z,8.69
2023-04-11T10:45:15.103Z,8.84
2023-04-11T10:47:43.630Z,8.88
2023-04-11T10:50:31.754Z,8.99
2023-04-11T10:53:03.320Z,9.05
2023-04-11T10:55:32.964Z,9.01
2023-04-11T10:58:04.672Z,9.08
2023-04-11T11:01:00.258Z,9.15
2023-04-11T11:03:30.739Z,9.24
2023-04-11T11:06:00.167Z,9.35
2023-04-11T11:08:30.732Z,9.41
2023-04-11T11:11:01.565Z,9.50
2023-04-11T11:13:39.937Z,9.54
2023-04-11T11:16:08.189Z,9.49
2023-04-11T11:18:36.769Z,9.36
2023-04-11T11:21:07.387Z,9.34
2023-04-11T11:23:38.954Z,9.27
2023-04-11T11:26:07.104Z,9.28
2023-04-11T11:28:46.476Z,9.27
2023-04-11T11:31:14.866Z,9.09
2023-04-11T11:33:43.170Z,9.13
2023-04-11T11:36:12.248Z,9.11
2023-04-11T11:38:41.742Z,9.09
2023-04-11T11:41:09.977Z,9.15
2023-04-11T11:43:38.987Z,9.25
2023-04-11T11:46:12.441Z,9.21
2023-04-11T11:48:40.794Z,9.27
2023-04-11T11:51:09.151Z,9.21
2023-04-11T11:53:37.576Z,9.21
2023-04-11T11:56:17.135Z,9.26
2023-04-11T11:58:46.000Z,9.24
2023-04-11T12:01:16.045Z,9.19
2023-04-11T12:03:44.799Z,9.13
2023-04-11T12:06:13.547Z,9.13
2023-04-11T12:08:50.358Z,9.10
2023-04-11T12:11:19.913Z,9.14
2023-04-11T12:13:53.003Z,9.22
2023-04-11T12:16:23.131Z,9.23
2023-04-11T12:18:51.182Z,9.29
2023-04-11T12:21:19.261Z,9.24
2023-04-11T12:23:47.442Z,9.33
2023-04-11T12:26:17.761Z,9.23
2023-04-11T12:28:47.526Z,9.29
2023-04-11T12:31:15.815Z,9.29
2023-04-11T12:33:44.008Z,9.24
2023-04-11T12:36:12.750Z,9.23
2023-04-11T12:38:41.149Z,9.24
2023-04-11T12:43:42.929Z,9.09
2023-04-11T12:46:12.656Z,9.04
2023-04-11T12:48:41.148Z,9.01
2023-04-11T12:51:09.429Z,9.06
2023-04-11T12:53:37.751Z,9.06
2023-04-11T12:56:06.329Z,9.06
2023-04-11T12:58:34.801Z,9.11
2023-04-11T13:01:03.098Z,9.09
2023-04-11T13:03:33.440Z,9.11
2023-04-11T13:06:01.543Z,9.21
2023-04-11T13:08:29.565Z,9.24
2023-04-11T13:10:57.630Z,9.31
2023-04-11T13:13:25.972Z,9.34
2023-04-11T13:15:54.186Z,9.34
2023-04-11T13:18:22.370Z,9.36
2023-04-11T13:20:51.800Z,9.32
2023-04-11T13:23:20.149Z,9.18
2023-04-11T13:25:48.602Z,9.19
2023-04-11T13:28:16.899Z,9.15
2023-04-11T13:30:45.526Z,9.11
2023-04-11T13:33:13.603Z,9.07
2023-04-11T13:35:41.876Z,9.04
2023-04-11T13:38:11.536Z,8.97
2023-04-11T13:40:40.527Z,8.96
2023-04-11T13:43:08.619Z,8.86
2023-04-11T13:45:37.097Z,8.86
2023-04-11T13:48:05.449Z,8.79
2023-04-11T13:50:34.943Z,8.74
2023-04-11T13:53:03.152Z,8.79
2023-04-11T13:55:32.682Z,8.70
2023-04-11T13:58:00.737Z,8.65
2023-04-11T14:00:28.755Z,8.62
2023-04-11T14:02:56.962Z,8.61
2023-04-11T14:05:27.003Z,8.60
2023-04-11T14:07:55.109Z,8.66
2023-04-11T14:10:23.606Z,8.71
2023-04-11T14:12:53.126Z,8.74
2023-04-11T14:15:21.894Z,8.80
2023-04-11T14:17:50.108Z,8.85
2023-04-11T14:20:18.349Z,8.78
2023-04-11T14:22:46.878Z,8.78
2023-04-11T14:25:15.843Z,8.76
2023-04-11T14:27:44.029Z,8.71
2023-04-11T14:30:14.888Z,8.75
2023-04-11T14:32:43.116Z,8.72
2023-04-11T14:35:11.371Z,8.68
2023-04-11T14:37:39.807Z,8.67
2023-04-11T14:40:11.086Z,8.60
2023-04-11T14:42:39.878Z,8.57
2023-04-11T14:45:08.767Z,8.56
2023-04-11T14:47:39.874Z,8.54
2023-04-11T14:50:08.845Z,8.50
2023-04-11T14:52:37.031Z,8.51
2023-04-11T14:55:05.283Z,8.46
2023-04-11T14:57:45.192Z,8.47
2023-04-11T15:00:18.991Z,8.50
2023-04-11T15:02:49.982Z,8.46
2023-04-11T15:05:19.729Z,8.50
2023-04-11T15:07:49.063Z,8.51
2023-04-11T15:10:18.579Z,8.47
2023-04-11T15:12:46.636Z,8.45
2023-04-11T15:15:15.098Z,8.48
2023-04-11T15:17:44.113Z,8.44
2023-04-11T15:20:14.721Z,8.53
2023-04-11T15:22:43.836Z,8.54
2023-04-11T15:25:12.860Z,8.57
2023-04-11T15:27:41.230Z,8.62
2023-04-11T15:30:10.490Z,8.56
2023-04-11T15:32:42.801Z,8.31
2023-04-11T15:35:11.362Z,8.25
2023-04-11T15:37:41.475Z,8.19
2023-04-11T15:40:12.264Z,8.21
2023-04-11T15:42:41.106Z,8.17
2023-04-11T15:45:09.327Z,8.07
2023-04-11T15:47:37.440Z,8.02
2023-04-11T15:50:06.046Z,7.81
2023-04-11T15:52:34.468Z,7.78
2023-04-11T15:55:04.175Z,7.50
2023-04-11T15:57:33.042Z,7.31
2023-04-11T16:00:01.286Z,7.38
2023-04-11T16:02:37.915Z,7.34
2023-04-11T16:05:08.023Z,7.15
2023-04-11T16:07:36.134Z,6.92
2023-04-11T16:10:06.048Z,6.86
2023-04-11T16:12:34.221Z,6.72
2023-04-11T16:15:02.333Z,6.51
2023-04-11T16:17:30.778Z,6.37
2023-04-11T16:19:58.842Z,6.21
2023-04-11T16:22:27.020Z,6.02
2023-04-11T16:24:56.338Z,5.98
2023-04-11T16:27:26.290Z,5.92
2023-04-11T16:29:59.842Z,5.80
2023-04-11T16:32:28.502Z,5.74
2023-04-11T16:34:57.889Z,5.64
2023-04-11T16:37:26.086Z,5.69
2023-04-11T16:39:54.124Z,5.69
2023-04-11T16:42:22.199Z,5.70
2023-04-11T16:44:52.043Z,5.66
2023-04-11T16:47:20.720Z,5.72
2023-04-11T16:49:49.650Z,5.86
2023-04-11T16:52:17.750Z,5.96
2023-04-11T16:54:46.017Z,6.11
2023-04-11T16:57:14.241Z,6.28
2023-04-11T16:59:42.787Z,6.44
2023-04-11T17:02:12.468Z,6.62
2023-04-11T17:04:41.513Z,6.60
2023-04-11T17:07:10.694Z,6.71
2023-04-11T17:09:39.159Z,6.53
2023-04-11T17:12:07.464Z,6.52
2023-04-11T17:14:36.585Z,6.51
2023-04-11T17:17:05.095Z,6.34
2023-04-11T17:19:34.725Z,6.45
2023-04-11T17:22:03.059Z,6.38
2023-04-11T17:24:31.761Z,6.30
2023-04-11T17:27:00.172Z,6.38
2023-04-11T17:29:28.535Z,6.37
2023-04-11T17:31:56.775Z,6.39
2023-04-11T17:34:25.188Z,6.42
2023-04-11T17:36:55.293Z,6.43
2023-04-11T17:39:23.547Z,6.37
2023-04-11T17:41:51.772Z,6.22
2023-04-11T17:44:20.792Z,6.20
2023-04-11T17:46:49.015Z,6.08
2023-04-11T17:49:17.171Z,6.03
2023-04-11T17:51:56.260Z,6.07
2023-04-11T17:54:28.562Z,6.19
2023-04-11T17:56:57.132Z,6.26
2023-04-11T17:59:25.564Z,6.27
2023-04-11T18:01:56.072Z,6.29
2023-04-11T18:04:24.492Z,6.32
2023-04-11T18:06:52.925Z,6.18
2023-04-11T18:09:21.981Z,6.24
2023-04-11T18:11:51.431Z,6.19
2023-04-11T18:14:19.487Z,6.13
2023-04-11T18:16:47.948Z,6.04
2023-04-11T18:19:15.996Z,5.87
2023-04-11T18:21:44.091Z,5.85
2023-04-11T18:24:12.500Z,5.86
2023-04-11T18:26:40.672Z,5.82
2023-04-11T18:29:10.522Z,5.78
2023-04-11T18:31:38.652Z,5.73
2023-04-11T18:34:07.948Z,5.79
2023-04-11T18:36:36.440Z,5.77
2023-04-11T18:39:04.903Z,5.67
2023-04-11T18:41:32.942Z,5.66
2023-04-11T18:44:02.486Z,5.68
2023-04-11T18:46:34.266Z,5.57
2023-04-11T18:49:05.248Z,5.54
2023-04-11T18:51:35.622Z,5.60
2023-04-11T18:54:03.771Z,5.56
2023-04-11T18:56:32.368Z,5.58
2023-04-11T18:59:05.478Z,5.53
2023-04-11T19:01:37.599Z,5.32
2023-04-11T19:04:06.240Z,5.31
2023-04-11T19:06:34.846Z,5.21
2023-04-11T19:09:02.937Z,5.01
2023-04-11T19:11:31.244Z,4.90
2023-04-11T19:14:00.465Z,4.76
2023-04-11T19:16:28.643Z,4.71
2023-04-11T19:18:59.374Z,4.57
2023-04-11T19:21:27.566Z,4.53
2023-04-11T19:23:57.569Z,4.46
2023-04-11T19:26:27.495Z,4.38
2023-04-11T19:28:56.288Z,4.40
2023-04-11T19:31:26.385Z,4.30
2023-04-11T19:33:54.638Z,4.18
2023-04-11T19:36:24.317Z,4.11
2023-04-11T19:38:52.733Z,4.02
2023-04-11T19:41:21.042Z,4.05
2023-04-11T19:43:49.513Z,3.96
2023-04-11T19:46:17.977Z,3.93
2023-04-11T19:48:46.633Z,3.92
2023-04-11T19:51:14.645Z,3.85
2023-04-11T19:53:44.188Z,3.84
2023-04-11T19:56:12.400Z,3.75
2023-04-11T19:58:40.650Z,3.73
2023-04-11T20:01:09.865Z,3.76
2023-04-11T20:03:38.320Z,3.72
2023-04-11T20:06:06.844Z,3.67
2023-04-11T20:08:36.671Z,3.61
2023-04-11T20:11:06.481Z,3.62
2023-04-11T20:13:36.131Z,3.60
2023-04-11T20:16:08.370Z,3.60
2023-04-11T20:18:36.746Z,3.53
2023-04-11T20:21:06.352Z,3.48
2023-04-11T20:23:35.507Z,3.43
2023-04-11T20:26:03.807Z,3.43
2023-04-11T20:28:33.339Z,3.43
2023-04-11T20:31:02.956Z,3.38
2023-04-11T20:33:31.110Z,3.32
2023-04-11T20:35:59.685Z,3.30
2023-04-11T20:38:27.775Z,3.24
2023-04-11T20:40:55.993Z,3.25
2023-04-11T20:43:26.478Z,3.11
2023-04-11T20:45:56.122Z,3.04
2023-04-11T20:48:26.026Z,3.03
2023-04-11T20:50:55.929Z,2.99
2023-04-11T20:53:24.667Z,2.90
2023-04-11T20:55:54.172Z,2.93
2023-04-11T20:58:22.206Z,2.96
2023-04-11T21:00:50.293Z,2.93
2023-04-11T21:03:19.992Z,2.91
2023-04-11T21:05:50.168Z,2.88
2023-04-11T21:08:18.496Z,2.88
2023-04-11T21:10:47.151Z,2.88
2023-04-11T21:13:15.229Z,2.89
2023-04-11T21:15:43.506Z,2.93
2023-04-11T21:18:11.768Z,2.93
2023-04-11T21:20:41.750Z,3.00
2023-04-11T21:23:10.136Z,3.05
2023-04-11T21:25:38.639Z,3.04
2023-04-11T21:28:06.714Z,2.96
2023-04-11T21:30:34.961Z,2.96
2023-04-11T21:33:03.089Z,2.89
2023-04-11T21:35:31.359Z,2.84
2023-04-11T21:38:01.051Z,2.82
2023-04-11T21:40:29.540Z,2.70
2023-04-11T21:42:57.806Z,2.67
2023-04-11T21:45:25.945Z,2.58
2023-04-11T21:47:54.413Z,2.57
2023-04-11T21:50:22.588Z,2.49
2023-04-11T21:52:50.620Z,2.40
2023-04-11T21:55:20.973Z,2.36
2023-04-11T21:57:49.006Z,2.31
2023-04-11T22:00:18.079Z,2.20
2023-04-11T22:02:46.623Z,2.17
2023-04-11T22:05:17.512Z,2.15
2023-04-11T22:07:49.038Z,2.08
2023-04-11T22:10:23.810Z,2.05
2023-04-11T22:12:55.877Z,2.01
2023-04-11T22:15:24.702Z,2.00
2023-04-11T22:17:54.958Z,1.97
2023-04-11T22:20:23.576Z,1.89
2023-04-11T22:22:51.664Z,1.93
2023-04-11T22:25:22.660Z,1.93
2023-04-11T22:27:55.792Z,1.90
2023-04-11T22:30:25.591Z,1.93
2023-04-11T22:32:55.602Z,1.94
2023-04-11T22:35:25.032Z,1.86
2023-04-11T22:37:55.507Z,1.84
2023-04-11T22:40:25.160Z,1.75
2023-04-11T22:42:54.140Z,1.73
2023-04-11T22:45:23.521Z,1.72
2023-04-11T22:47:57.014Z,1.71
2023-04-11T22:50:25.121Z,1.67
2023-04-11T22:52:54.867Z,1.67
2023-04-11T22:55:24.821Z,1.67
2023-04-11T22:57:53.064Z,1.70
2023-04-11T23:00:22.092Z,1.71
2023-04-11T23:02:51.256Z,1.69
2023-04-11T23:05:20.849Z,1.70
2023-04-11T23:07:49.287Z,1.70
2023-04-11T23:10:17.689Z,1.72
2023-04-11T23:12:47.386Z,1.78
2023-04-11T23:15:15.446Z,1.84
2023-04-11T23:17:43.856Z,1.87
2023-04-11T23:20:13.433Z,1.90
2023-04-11T23:22:44.136Z,1.96
2023-04-11T23:25:12.799Z,1.94
2023-04-11T23:27:41.177Z,1.95
2023-04-11T23:30:11.859Z,1.86
2023-04-11T23:32:41.614Z,1.86
2023-04-11T23:35:10.178Z,1.85
2023-04-11T23:37:38.395Z,1.84
2023-04-11T23:40:12.610Z,1.75
2023-04-11T23:42:41.131Z,1.74
2023-04-11T23:45:10.809Z,1.70
2023-04-11T23:47:39.208Z,1.69
2023-04-11T23:50:08.067Z,1.70
2023-04-11T23:52:36.140Z,1.71
2023-04-11T23:55:04.339Z,1.76
2023-04-11T23:57:34.206Z,1.73
